DTTADABB

Guest
Details From DTTA - CARTHAGE
To DABB - ANNABA
Flight Number -
Tags generated
Created
Modified
Stats Distance 116 nm / 215 km
Max Altitude 8,600 ft / 2,621 m
Waypoints 3
Social Downloads 2
Likes 0
Share VATSIM

Download

Looking for another format? Having issues loading an existing format? Contact us
Advertisement - Login to hide

Notes

Basic altitude profile: - Ascent Rate: 2500ft/min - Ascent Speed: 250kts - Cruise Altitude: 35000ft - Cruise Speed: 420kts - Descent Rate: 1500ft/min - Descent Speed: 250kts Options: - Use NATs: yes - Use PACOTS: yes - Use low airways: yes - Use high airways: yes

Route

DTTA MORJA DABB

ID Type Via Altitude Latitude Longitude Leg Dist Tot Dist Heading (true) Name
O DTTA APT - 0 ft / 0 m 36.85127˚ 10.23003˚ - 0 nm - CARTHAGE
MORJA FIX - 8,600 ft / 2,621 m 36.83444˚ 8.65000˚ 75 nm 75 nm 270° / 269° -
O DABB APT - 0 ft / 0 m 36.82933˚ 7.81375˚ 40 nm 116 nm 270° / 269° ANNABA

Altitude Profile

Advertisement - Login to hide

DTTA

Details ICAO DTTA (TUN)
Name CARTHAGE
Region Tunisia
Timezone Africa/Tunis (UTC+1.0)
Stats Elevation 22 ft / 7 m (AMSL)
Location 36.851267° 10.230027°
Runways 2
Magnetic Variation 2.403° E

METAR

DTTA 130200Z 16002KT 9999 FEW033 10/06 Q1020 NOSIG

Decode

TAF

TAF DTTA 122300Z 1300/1324 18006KT CAVOK BECMG 1302/1304 34014KT 9999 SCT023

Decode

Departure Runways

ID Width Length Bearing (true) Bearing (mag) Surface Threshold Offset Overrun Length
01 148 ft / 45 m 10,502 ft / 3,201 m 12.29° 9.89° Asphalt 0 ft / 0 m 197 ft / 60 m
11 148 ft / 45 m 9,345 ft / 2,848 m 112.55° 110.15° Asphalt 0 ft / 0 m 643 ft / 196 m
19 148 ft / 45 m 10,502 ft / 3,201 m 192.29° 189.89° Asphalt 0 ft / 0 m 197 ft / 60 m
29 148 ft / 45 m 9,345 ft / 2,848 m 292.57° 290.17° Asphalt 657 ft / 200 m 197 ft / 60 m

DABB

Details ICAO DABB (AAE)
Name ANNABA
Region Algeria
Timezone Africa/Algiers (UTC+1.0)
Stats Elevation 16 ft / 5 m (AMSL)
Location 36.829326° 7.813746°
Runways 2
Magnetic Variation 1.976° E

METAR

DABB 130200Z 28003KT 8000 FEW023 SCT033 BKN100 12/11 Q1019

Decode

TAF

TAF DABB 122300Z 1300/1324 30008KT 9999 FEW020 BKN030 PROB40 TEMPO 1301/1308 5000 -RA FEW023TCU

Decode

Destination Runways

ID Width Length Bearing (true) Bearing (mag) Surface Threshold Offset Overrun Length
01 148 ft / 45 m 9,842 ft / 3,000 m 6.89° 4.91° Asphalt 329 ft / 100 m 60 ft / 18 m
05 148 ft / 45 m 7,468 ft / 2,276 m 51.66° 49.68° Asphalt 0 ft / 0 m 135 ft / 41 m
19 148 ft / 45 m 9,842 ft / 3,000 m 186.89° 184.91° Asphalt 0 ft / 0 m 65 ft / 20 m
23 148 ft / 45 m 7,468 ft / 2,276 m 231.68° 229.70° Asphalt 0 ft / 0 m 50 ft / 15 m

Approach Navaids

Runway Type Ident Frequency Range Bearing (true) Bearing (mag) Slope Elevation
19 Localiser AN 109.70 MHz 18 nm / 33 km 185.70° 183.73° - 16 ft / 5 m (AMSL)
19 Glidescope AN 109.70 MHz 10 nm / 19 km 186.89° 184.91° 3.00° 16 ft / 5 m (AMSL)